sensor_id;sensor_type;location;lat;lon;timestamp;pressure;altitude;pressure_sealevel;temperature;humidity
49377;BME280;35253;34.688;33.040;2023-03-04T00:02:20;101254.84;;;15.39;100.00
49377;BME280;35253;34.688;33.040;2023-03-04T00:04:45;101250.97;;;15.43;100.00
49377;BME280;35253;34.688;33.040;2023-03-04T00:07:11;101247.66;;;15.40;100.00
49377;BME280;35253;34.688;33.040;2023-03-04T00:09:41;101238.72;;;15.39;100.00
49377;BME280;35253;34.688;33.040;2023-03-04T00:12:06;101244.19;;;15.25;100.00
49377;BME280;35253;34.688;33.040;2023-03-04T00:14:32;101242.03;;;15.30;100.00
49377;BME280;35253;34.688;33.040;2023-03-04T00:16:58;101253.66;;;15.43;100.00
49377;BME280;35253;34.688;33.040;2023-03-04T00:19:23;101250.34;;;15.52;100.00
49377;BME280;35253;34.688;33.040;2023-03-04T00:21:49;101245.09;;;15.51;100.00
49377;BME280;35253;34.688;33.040;2023-03-04T00:24:14;101243.56;;;15.59;100.00
49377;BME280;35253;34.688;33.040;2023-03-04T00:26:40;101243.25;;;15.64;100.00
49377;BME280;35253;34.688;33.040;2023-03-04T00:29:05;101245.28;;;15.73;100.00
49377;BME280;35253;34.688;33.040;2023-03-04T00:31:30;101248.06;;;15.71;100.00
49377;BME280;35253;34.688;33.040;2023-03-04T00:33:56;101238.72;;;15.64;100.00
49377;BME280;35253;34.688;33.040;2023-03-04T00:36:21;101239.06;;;15.60;100.00
49377;BME280;35253;34.688;33.040;2023-03-04T00:38:47;101241.84;;;15.58;100.00
49377;BME280;35253;34.688;33.040;2023-03-04T00:41:12;101242.38;;;15.63;100.00
49377;BME280;35253;34.688;33.040;2023-03-04T00:43:38;101239.13;;;15.46;100.00
49377;BME280;35253;34.688;33.040;2023-03-04T00:46:04;101244.84;;;15.41;100.00
49377;BME280;35253;34.688;33.040;2023-03-04T00:48:29;101238.06;;;15.48;100.00
49377;BME280;35253;34.688;33.040;2023-03-04T00:50:55;101248.28;;;15.43;100.00
49377;BME280;35253;34.688;33.040;2023-03-04T00:53:20;101243.78;;;15.44;100.00
49377;BME280;35253;34.688;33.040;2023-03-04T00:55:48;101252.34;;;15.36;100.00
49377;BME280;35253;34.688;33.040;2023-03-04T00:58:13;101249.34;;;15.28;100.00
49377;BME280;35253;34.688;33.040;2023-03-04T01:00:38;101243.97;;;15.28;100.00
49377;BME280;35253;34.688;33.040;2023-03-04T01:03:04;101238.16;;;15.09;100.00
49377;BME280;35253;34.688;33.040;2023-03-04T01:05:29;101234.41;;;15.11;100.00
49377;BME280;35253;34.688;33.040;2023-03-04T01:07:56;101233.53;;;15.11;100.00
49377;BME280;35253;34.688;33.040;2023-03-04T01:10:21;101234.28;;;15.00;100.00
49377;BME280;35253;34.688;33.040;2023-03-04T01:12:47;101228.72;;;15.16;100.00
49377;BME280;35253;34.688;33.040;2023-03-04T01:15:12;101237.09;;;15.24;100.00
49377;BME280;35253;34.688;33.040;2023-03-04T01:17:38;101231.06;;;15.33;100.00
49377;BME280;35253;34.688;33.040;2023-03-04T01:20:04;101218.06;;;15.27;100.00
49377;BME280;35253;34.688;33.040;2023-03-04T01:22:30;101211.53;;;15.31;100.00
49377;BME280;35253;34.688;33.040;2023-03-04T01:24:55;101212.81;;;15.38;100.00
49377;BME280;35253;34.688;33.040;2023-03-04T01:27:21;101213.34;;;15.43;100.00
49377;BME280;35253;34.688;33.040;2023-03-04T01:29:46;101210.66;;;15.43;100.00
49377;BME280;35253;34.688;33.040;2023-03-04T01:32:12;101203.03;;;15.37;100.00
49377;BME280;35253;34.688;33.040;2023-03-04T01:34:37;101209.59;;;15.33;100.00
49377;BME280;35253;34.688;33.040;2023-03-04T01:37:03;101212.91;;;15.37;100.00
49377;BME280;35253;34.688;33.040;2023-03-04T01:39:28;101206.03;;;15.20;100.00
49377;BME280;35253;34.688;33.040;2023-03-04T01:41:54;101202.16;;;15.24;100.00
49377;BME280;35253;34.688;33.040;2023-03-04T01:44:19;101197.75;;;15.23;100.00
49377;BME280;35253;34.688;33.040;2023-03-04T01:46:52;101195.28;;;15.20;100.00
49377;BME280;35253;34.688;33.040;2023-03-04T01:49:18;101207.88;;;15.19;100.00
49377;BME280;35253;34.688;33.040;2023-03-04T01:51:46;101203.66;;;15.03;100.00
49377;BME280;35253;34.688;33.040;2023-03-04T01:54:13;101202.47;;;14.94;100.00
49377;BME280;35253;34.688;33.040;2023-03-04T01:56:38;101200.97;;;15.03;100.00
49377;BME280;35253;34.688;33.040;2023-03-04T02:01:33;101185.50;;;14.94;100.00
49377;BME280;35253;34.688;33.040;2023-03-04T02:03:58;101194.09;;;14.99;100.00
49377;BME280;35253;34.688;33.040;2023-03-04T02:06:24;101192.84;;;15.04;100.00
49377;BME280;35253;34.688;33.040;2023-03-04T02:08:49;101193.56;;;15.06;100.00
49377;BME280;35253;34.688;33.040;2023-03-04T02:11:15;101191.53;;;15.10;100.00
49377;BME280;35253;34.688;33.040;2023-03-04T02:13:41;101199.06;;;15.05;100.00
49377;BME280;35253;34.688;33.040;2023-03-04T02:16:06;101205.41;;;15.04;100.00
49377;BME280;35253;34.688;33.040;2023-03-04T02:18:32;101198.72;;;14.97;100.00
49377;BME280;35253;34.688;33.040;2023-03-04T02:23:46;101196.47;;;14.91;100.00
49377;BME280;35253;34.688;33.040;2023-03-04T02:26:17;101203.34;;;14.95;100.00
49377;BME280;35253;34.688;33.040;2023-03-04T02:28:44;101201.31;;;15.11;100.00
49377;BME280;35253;34.688;33.040;2023-03-04T02:31:14;101205.94;;;15.09;100.00
49377;BME280;35253;34.688;33.040;2023-03-04T02:33:44;101219.25;;;15.10;100.00
49377;BME280;35253;34.688;33.040;2023-03-04T02:36:10;101214.50;;;15.14;100.00
49377;BME280;35253;34.688;33.040;2023-03-04T02:38:35;101217.19;;;15.14;100.00
49377;BME280;35253;34.688;33.040;2023-03-04T02:41:01;101212.81;;;15.13;100.00
49377;BME280;35253;34.688;33.040;2023-03-04T02:43:27;101222.25;;;15.06;100.00
49377;BME280;35253;34.688;33.040;2023-03-04T02:45:52;101231.47;;;15.02;100.00
49377;BME280;35253;34.688;33.040;2023-03-04T02:48:20;101240.28;;;14.91;100.00
49377;BME280;35253;34.688;33.040;2023-03-04T02:50:50;101246.31;;;14.95;100.00
49377;BME280;35253;34.688;33.040;2023-03-04T02:53:16;101240.78;;;14.83;100.00
49377;BME280;35253;34.688;33.040;2023-03-04T02:55:42;101249.63;;;14.85;100.00
49377;BME280;35253;34.688;33.040;2023-03-04T02:58:08;101245.19;;;14.84;100.00
49377;BME280;35253;34.688;33.040;2023-03-04T03:00:33;101246.03;;;14.72;100.00
49377;BME280;35253;34.688;33.040;2023-03-04T03:02:59;101246.44;;;14.66;100.00
49377;BME280;35253;34.688;33.040;2023-03-04T03:05:25;101249.88;;;14.68;100.00
49377;BME280;35253;34.688;33.040;2023-03-04T03:07:51;101246.03;;;14.72;100.00
49377;BME280;35253;34.688;33.040;2023-03-04T03:10:16;101250.50;;;14.59;100.00
49377;BME280;35253;34.688;33.040;2023-03-04T03:12:42;101251.72;;;14.41;100.00
49377;BME280;35253;34.688;33.040;2023-03-04T03:15:07;101247.53;;;14.37;100.00
49377;BME280;35253;34.688;33.040;2023-03-04T03:17:33;101240.25;;;14.25;100.00
49377;BME280;35253;34.688;33.040;2023-03-04T03:19:58;101250.03;;;14.26;100.00
49377;BME280;35253;34.688;33.040;2023-03-04T03:22:24;101240.03;;;14.28;100.00
49377;BME280;35253;34.688;33.040;2023-03-04T03:24:50;101238.72;;;14.21;100.00
49377;BME280;35253;34.688;33.040;2023-03-04T03:27:15;101249.41;;;14.08;100.00
49377;BME280;35253;34.688;33.040;2023-03-04T03:29:41;101257.53;;;13.92;100.00
49377;BME280;35253;34.688;33.040;2023-03-04T03:32:06;101256.97;;;13.87;100.00
49377;BME280;35253;34.688;33.040;2023-03-04T03:34:32;101252.03;;;13.81;100.00
49377;BME280;35253;34.688;33.040;2023-03-04T03:36:57;101246.25;;;13.87;100.00
49377;BME280;35253;34.688;33.040;2023-03-04T03:39:23;101249.41;;;13.80;100.00
49377;BME280;35253;34.688;33.040;2023-03-04T03:41:48;101248.84;;;13.89;100.00
49377;BME280;35253;34.688;33.040;2023-03-04T03:44:14;101244.34;;;14.04;100.00
49377;BME280;35253;34.688;33.040;2023-03-04T03:46:40;101230.91;;;14.04;100.00
49377;BME280;35253;34.688;33.040;2023-03-04T03:49:05;101242.38;;;14.20;100.00
49377;BME280;35253;34.688;33.040;2023-03-04T03:51:31;101248.13;;;14.14;100.00
49377;BME280;35253;34.688;33.040;2023-03-04T03:53:56;101241.13;;;14.25;100.00
49377;BME280;35253;34.688;33.040;2023-03-04T03:56:22;101252.66;;;14.40;100.00
49377;BME280;35253;34.688;33.040;2023-03-04T03:58:47;101252.22;;;14.60;100.00
49377;BME280;35253;34.688;33.040;2023-03-04T04:01:13;101250.28;;;14.62;100.00
49377;BME280;35253;34.688;33.040;2023-03-04T04:03:38;101248.56;;;14.61;100.00
49377;BME280;35253;34.688;33.040;2023-03-04T04:06:04;101238.72;;;14.74;100.00
49377;BME280;35253;34.688;33.040;2023-03-04T04:08:30;101240.25;;;14.78;100.00
49377;BME280;35253;34.688;33.040;2023-03-04T04:10:55;101238.88;;;14.46;100.00
49377;BME280;35253;34.688;33.040;2023-03-04T04:13:21;101234.81;;;14.53;100.00
49377;BME280;35253;34.688;33.040;2023-03-04T04:15:46;101232.66;;;14.31;100.00
49377;BME280;35253;34.688;33.040;2023-03-04T04:18:11;101228.66;;;14.24;100.00
49377;BME280;35253;34.688;33.040;2023-03-04T04:20:37;101249.13;;;13.98;100.00
49377;BME280;35253;34.688;33.040;2023-03-04T04:23:02;101257.72;;;14.04;100.00
49377;BME280;35253;34.688;33.040;2023-03-04T04:25:28;101265.22;;;13.98;100.00
49377;BME280;35253;34.688;33.040;2023-03-04T04:27:53;101272.44;;;14.25;100.00
49377;BME280;35253;34.688;33.040;2023-03-04T04:30:19;101265.47;;;14.49;100.00
49377;BME280;35253;34.688;33.040;2023-03-04T04:32:44;101272.22;;;14.69;100.00
49377;BME280;35253;34.688;33.040;2023-03-04T04:35:10;101269.84;;;14.64;100.00
49377;BME280;35253;34.688;33.040;2023-03-04T04:37:35;101280.38;;;14.67;100.00
49377;BME280;35253;34.688;33.040;2023-03-04T04:40:01;101271.75;;;14.62;100.00
49377;BME280;35253;34.688;33.040;2023-03-04T04:42:27;101268.16;;;14.35;100.00
49377;BME280;35253;34.688;33.040;2023-03-04T04:44:53;101266.81;;;14.56;100.00
49377;BME280;35253;34.688;33.040;2023-03-04T04:47:18;101270.84;;;14.49;100.00
49377;BME280;35253;34.688;33.040;2023-03-04T04:49:44;101273.38;;;14.38;100.00
49377;BME280;35253;34.688;33.040;2023-03-04T04:52:09;101280.97;;;14.58;100.00
49377;BME280;35253;34.688;33.040;2023-03-04T04:54:35;101282.56;;;14.34;100.00
49377;BME280;35253;34.688;33.040;2023-03-04T04:57:00;101283.41;;;14.75;100.00
49377;BME280;35253;34.688;33.040;2023-03-04T04:59:25;101284.00;;;14.66;100.00
49377;BME280;35253;34.688;33.040;2023-03-04T05:01:51;101287.50;;;14.54;100.00
49377;BME280;35253;34.688;33.040;2023-03-04T05:04:16;101287.41;;;14.56;100.00
49377;BME280;35253;34.688;33.040;2023-03-04T05:06:42;101287.53;;;14.40;100.00
49377;BME280;35253;34.688;33.040;2023-03-04T05:09:08;101292.72;;;14.29;100.00
49377;BME280;35253;34.688;33.040;2023-03-04T05:11:33;101290.25;;;14.26;100.00
49377;BME280;35253;34.688;33.040;2023-03-04T05:13:59;101291.59;;;14.19;100.00
49377;BME280;35253;34.688;33.040;2023-03-04T05:16:24;101299.72;;;14.31;100.00
49377;BME280;35253;34.688;33.040;2023-03-04T05:18:50;101292.72;;;14.43;100.00
49377;BME280;35253;34.688;33.040;2023-03-04T05:21:15;101285.75;;;14.67;100.00
49377;BME280;35253;34.688;33.040;2023-03-04T05:23:41;101286.34;;;14.58;100.00
49377;BME280;35253;34.688;33.040;2023-03-04T05:26:07;101294.41;;;14.98;97.87
49377;BME280;35253;34.688;33.040;2023-03-04T05:28:33;101290.44;;;14.91;95.37
49377;BME280;35253;34.688;33.040;2023-03-04T05:30:59;101290.81;;;15.24;92.69
49377;BME280;35253;34.688;33.040;2023-03-04T05:33:25;101292.00;;;15.20;91.01
49377;BME280;35253;34.688;33.040;2023-03-04T05:35:50;101302.97;;;15.17;89.43
49377;BME280;35253;34.688;33.040;2023-03-04T05:38:17;101300.28;;;15.17;88.95
49377;BME280;35253;34.688;33.040;2023-03-04T05:40:43;101299.44;;;15.29;86.63
49377;BME280;35253;34.688;33.040;2023-03-04T05:43:09;101301.41;;;15.52;85.54
49377;BME280;35253;34.688;33.040;2023-03-04T05:45:35;101307.66;;;15.65;84.79
49377;BME280;35253;34.688;33.040;2023-03-04T05:48:01;101305.72;;;15.67;84.85
49377;BME280;35253;34.688;33.040;2023-03-04T05:50:27;101310.44;;;15.76;85.49
49377;BME280;35253;34.688;33.040;2023-03-04T05:52:52;101319.28;;;15.78;85.84
49377;BME280;35253;34.688;33.040;2023-03-04T05:55:18;101323.56;;;15.81;84.67
49377;BME280;35253;34.688;33.040;2023-03-04T05:57:44;101329.56;;;15.97;84.39
49377;BME280;35253;34.688;33.040;2023-03-04T06:00:10;101332.56;;;16.18;82.16
49377;BME280;35253;34.688;33.040;2023-03-04T06:02:37;101339.22;;;16.25;81.19
49377;BME280;35253;34.688;33.040;2023-03-04T06:05:03;101341.13;;;16.36;82.72
49377;BME280;35253;34.688;33.040;2023-03-04T06:07:29;101350.91;;;16.49;83.25
49377;BME280;35253;34.688;33.040;2023-03-04T06:09:55;101356.38;;;16.60;84.12
49377;BME280;35253;34.688;33.040;2023-03-04T06:12:20;101357.69;;;16.42;87.72
49377;BME280;35253;34.688;33.040;2023-03-04T06:14:45;101369.19;;;16.57;93.50
49377;BME280;35253;34.688;33.040;2023-03-04T06:17:11;101378.31;;;16.54;97.39
49377;BME280;35253;34.688;33.040;2023-03-04T06:19:36;101386.53;;;16.53;100.00
49377;BME280;35253;34.688;33.040;2023-03-04T06:22:02;101387.59;;;16.50;100.00
49377;BME280;35253;34.688;33.040;2023-03-04T06:24:28;101388.69;;;16.60;100.00
49377;BME280;35253;34.688;33.040;2023-03-04T06:26:53;101389.94;;;16.67;100.00
49377;BME280;35253;34.688;33.040;2023-03-04T06:29:19;101397.94;;;16.69;100.00
49377;BME280;35253;34.688;33.040;2023-03-04T06:31:44;101403.06;;;16.85;100.00
49377;BME280;35253;34.688;33.040;2023-03-04T06:34:10;101406.19;;;16.79;100.00
49377;BME280;35253;34.688;33.040;2023-03-04T06:36:35;101399.28;;;16.87;100.00
49377;BME280;35253;34.688;33.040;2023-03-04T06:39:04;101400.66;;;16.93;100.00
49377;BME280;35253;34.688;33.040;2023-03-04T06:41:29;101400.41;;;16.96;100.00
49377;BME280;35253;34.688;33.040;2023-03-04T06:43:55;101398.50;;;16.98;100.00
49377;BME280;35253;34.688;33.040;2023-03-04T06:46:21;101413.06;;;17.19;100.00
49377;BME280;35253;34.688;33.040;2023-03-04T06:48:46;101409.16;;;17.23;100.00
49377;BME280;35253;34.688;33.040;2023-03-04T06:51:12;101409.00;;;17.25;100.00
49377;BME280;35253;34.688;33.040;2023-03-04T06:53:38;101412.75;;;17.35;100.00
49377;BME280;35253;34.688;33.040;2023-03-04T06:56:04;101411.88;;;17.34;100.00
49377;BME280;35253;34.688;33.040;2023-03-04T06:58:30;101411.66;;;17.37;100.00
49377;BME280;35253;34.688;33.040;2023-03-04T07:00:55;101412.09;;;17.55;100.00
49377;BME280;35253;34.688;33.040;2023-03-04T07:03:21;101421.84;;;17.69;100.00
49377;BME280;35253;34.688;33.040;2023-03-04T07:05:46;101415.28;;;17.84;100.00
49377;BME280;35253;34.688;33.040;2023-03-04T07:08:12;101425.34;;;17.93;100.00
49377;BME280;35253;34.688;33.040;2023-03-04T07:10:37;101425.34;;;17.93;100.00
49377;BME280;35253;34.688;33.040;2023-03-04T07:13:03;101426.22;;;17.93;100.00
49377;BME280;35253;34.688;33.040;2023-03-04T07:15:28;101429.41;;;17.98;100.00
49377;BME280;35253;34.688;33.040;2023-03-04T07:17:54;101430.47;;;17.85;100.00
49377;BME280;35253;34.688;33.040;2023-03-04T07:20:19;101439.31;;;17.87;100.00
49377;BME280;35253;34.688;33.040;2023-03-04T07:22:45;101439.81;;;17.92;100.00
49377;BME280;35253;34.688;33.040;2023-03-04T07:25:11;101448.31;;;17.98;100.00
49377;BME280;35253;34.688;33.040;2023-03-04T07:27:36;101445.91;;;17.83;100.00
49377;BME280;35253;34.688;33.040;2023-03-04T07:30:05;101451.63;;;18.02;100.00
49377;BME280;35253;34.688;33.040;2023-03-04T07:32:31;101436.66;;;17.98;100.00
49377;BME280;35253;34.688;33.040;2023-03-04T07:34:58;101430.63;;;18.06;100.00
49377;BME280;35253;34.688;33.040;2023-03-04T07:37:24;101431.03;;;18.12;100.00
49377;BME280;35253;34.688;33.040;2023-03-04T07:39:49;101428.59;;;18.20;100.00
49377;BME280;35253;34.688;33.040;2023-03-04T07:42:15;101432.50;;;18.16;100.00
49377;BME280;35253;34.688;33.040;2023-03-04T07:44:40;101426.38;;;18.25;100.00
49377;BME280;35253;34.688;33.040;2023-03-04T07:47:06;101425.25;;;18.39;100.00
49377;BME280;35253;34.688;33.040;2023-03-04T07:49:31;101420.47;;;18.31;100.00
49377;BME280;35253;34.688;33.040;2023-03-04T07:51:57;101418.63;;;18.43;100.00
49377;BME280;35253;34.688;33.040;2023-03-04T07:54:22;101407.59;;;18.46;100.00
49377;BME280;35253;34.688;33.040;2023-03-04T07:56:47;101411.75;;;18.39;100.00
49377;BME280;35253;34.688;33.040;2023-03-04T07:59:13;101413.38;;;18.41;100.00
49377;BME280;35253;34.688;33.040;2023-03-04T08:01:38;101416.81;;;18.32;100.00
49377;BME280;35253;34.688;33.040;2023-03-04T08:04:04;101420.13;;;18.47;100.00
49377;BME280;35253;34.688;33.040;2023-03-04T08:06:30;101406.75;;;18.68;100.00
49377;BME280;35253;34.688;33.040;2023-03-04T08:08:57;101415.34;;;18.51;100.00
49377;BME280;35253;34.688;33.040;2023-03-04T08:11:23;101407.97;;;18.53;100.00
49377;BME280;35253;34.688;33.040;2023-03-04T08:13:48;101406.03;;;18.55;100.00
49377;BME280;35253;34.688;33.040;2023-03-04T08:16:15;101400.84;;;18.52;100.00
49377;BME280;35253;34.688;33.040;2023-03-04T08:18:41;101408.38;;;18.59;100.00
49377;BME280;35253;34.688;33.040;2023-03-04T08:21:08;101409.72;;;18.65;100.00
49377;BME280;35253;34.688;33.040;2023-03-04T08:23:34;101403.78;;;18.48;100.00
49377;BME280;35253;34.688;33.040;2023-03-04T08:26:00;101408.22;;;18.50;100.00
49377;BME280;35253;34.688;33.040;2023-03-04T08:28:29;101411.44;;;18.55;100.00
49377;BME280;35253;34.688;33.040;2023-03-04T08:30:55;101417.28;;;18.48;100.00
49377;BME280;35253;34.688;33.040;2023-03-04T08:33:20;101400.47;;;18.45;100.00
49377;BME280;35253;34.688;33.040;2023-03-04T08:35:46;101403.44;;;18.64;100.00
49377;BME280;35253;34.688;33.040;2023-03-04T08:38:12;101402.81;;;18.61;100.00
49377;BME280;35253;34.688;33.040;2023-03-04T08:40:37;101400.63;;;18.55;100.00
49377;BME280;35253;34.688;33.040;2023-03-04T08:43:02;101404.28;;;18.76;100.00
49377;BME280;35253;34.688;33.040;2023-03-04T08:45:28;101405.16;;;18.76;100.00
49377;BME280;35253;34.688;33.040;2023-03-04T08:47:53;101402.28;;;18.89;100.00
49377;BME280;35253;34.688;33.040;2023-03-04T08:50:19;101391.69;;;18.97;100.00
49377;BME280;35253;34.688;33.040;2023-03-04T08:52:45;101390.56;;;18.68;100.00
49377;BME280;35253;34.688;33.040;2023-03-04T08:55:11;101370.66;;;18.69;100.00
49377;BME280;35253;34.688;33.040;2023-03-04T08:57:36;101376.72;;;18.93;100.00
49377;BME280;35253;34.688;33.040;2023-03-04T09:00:04;101380.19;;;18.95;100.00
49377;BME280;35253;34.688;33.040;2023-03-04T09:02:30;101378.47;;;18.83;100.00
49377;BME280;35253;34.688;33.040;2023-03-04T09:04:55;101373.75;;;18.96;100.00
49377;BME280;35253;34.688;33.040;2023-03-04T09:07:21;101376.25;;;18.88;100.00
49377;BME280;35253;34.688;33.040;2023-03-04T09:09:46;101373.91;;;18.95;100.00
49377;BME280;35253;34.688;33.040;2023-03-04T09:12:12;101376.94;;;19.01;100.00
49377;BME280;35253;34.688;33.040;2023-03-04T09:14:40;101374.47;;;19.09;100.00
49377;BME280;35253;34.688;33.040;2023-03-04T09:17:05;101370.50;;;19.13;100.00
49377;BME280;35253;34.688;33.040;2023-03-04T09:19:31;101366.91;;;18.92;100.00
49377;BME280;35253;34.688;33.040;2023-03-04T09:21:56;101361.75;;;18.89;100.00
49377;BME280;35253;34.688;33.040;2023-03-04T09:24:24;101367.31;;;19.19;100.00
49377;BME280;35253;34.688;33.040;2023-03-04T09:26:49;101369.31;;;19.06;100.00
49377;BME280;35253;34.688;33.040;2023-03-04T09:29:15;101375.41;;;19.19;100.00
49377;BME280;35253;34.688;33.040;2023-03-04T09:31:41;101363.91;;;19.06;100.00
49377;BME280;35253;34.688;33.040;2023-03-04T09:34:07;101366.72;;;19.05;100.00
49377;BME280;35253;34.688;33.040;2023-03-04T09:36:32;101358.78;;;19.03;100.00
49377;BME280;35253;34.688;33.040;2023-03-04T09:38:58;101356.53;;;19.08;100.00
49377;BME280;35253;34.688;33.040;2023-03-04T09:41:35;101360.38;;;19.26;100.00
49377;BME280;35253;34.688;33.040;2023-03-04T09:44:02;101345.09;;;19.05;100.00
49377;BME280;35253;34.688;33.040;2023-03-04T09:46:33;101345.00;;;19.06;100.00
49377;BME280;35253;34.688;33.040;2023-03-04T09:49:00;101328.19;;;18.91;100.00
49377;BME280;35253;34.688;33.040;2023-03-04T09:51:35;101331.38;;;18.97;100.00
49377;BME280;35253;34.688;33.040;2023-03-04T09:56:43;101335.53;;;19.01;100.00
49377;BME280;35253;34.688;33.040;2023-03-04T10:01:56;101331.38;;;18.97;100.00
49377;BME280;35253;34.688;33.040;2023-03-04T10:04:46;101329.66;;;19.27;100.00
49377;BME280;35253;34.688;33.040;2023-03-04T10:07:23;101327.34;;;19.23;100.00
49377;BME280;35253;34.688;33.040;2023-03-04T10:10:02;101328.00;;;19.47;100.00
49377;BME280;35253;34.688;33.040;2023-03-04T10:12:29;101314.25;;;19.60;100.00
49377;BME280;35253;34.688;33.040;2023-03-04T10:15:13;101317.69;;;19.62;100.00
49377;BME280;35253;34.688;33.040;2023-03-04T10:17:43;101319.38;;;19.21;100.00
49377;BME280;35253;34.688;33.040;2023-03-04T10:20:11;101324.16;;;19.18;100.00
49377;BME280;35253;34.688;33.040;2023-03-04T10:22:41;101323.59;;;19.35;100.00
49377;BME280;35253;34.688;33.040;2023-03-04T10:25:15;101317.94;;;19.17;100.00
49377;BME280;35253;34.688;33.040;2023-03-04T10:27:42;101315.56;;;19.45;100.00
49377;BME280;35253;34.688;33.040;2023-03-04T10:30:12;101313.63;;;19.47;100.00
49377;BME280;35253;34.688;33.040;2023-03-04T10:32:46;101302.31;;;19.62;100.00
49377;BME280;35253;34.688;33.040;2023-03-04T10:35:12;101303.50;;;19.49;100.00
49377;BME280;35253;34.688;33.040;2023-03-04T10:37:49;101289.94;;;19.90;100.00
49377;BME280;35253;34.688;33.040;2023-03-04T10:40:23;101289.94;;;19.90;100.00
49377;BME280;35253;34.688;33.040;2023-03-04T10:42:49;101291.25;;;20.05;100.00
49377;BME280;35253;34.688;33.040;2023-03-04T10:45:23;101286.34;;;19.59;100.00
49377;BME280;35253;34.688;33.040;2023-03-04T10:47:52;101285.16;;;19.73;100.00
49377;BME280;35253;34.688;33.040;2023-03-04T10:50:23;101286.41;;;19.99;100.00
49377;BME280;35253;34.688;33.040;2023-03-04T10:52:49;101269.38;;;19.78;100.00
49377;BME280;35253;34.688;33.040;2023-03-04T10:55:18;101263.94;;;20.08;100.00
49377;BME280;35253;34.688;33.040;2023-03-04T10:57:44;101271.34;;;20.16;100.00
49377;BME280;35253;34.688;33.040;2023-03-04T11:02:43;101266.66;;;20.08;100.00
49377;BME280;35253;34.688;33.040;2023-03-04T11:05:19;101264.75;;;20.30;100.00
49377;BME280;35253;34.688;33.040;2023-03-04T11:12:40;101249.09;;;20.52;100.00
49377;BME280;35253;34.688;33.040;2023-03-04T11:15:16;101255.66;;;20.50;100.00
49377;BME280;35253;34.688;33.040;2023-03-04T11:17:43;101253.94;;;20.49;100.00
49377;BME280;35253;34.688;33.040;2023-03-04T11:20:19;101247.97;;;20.74;100.00
49377;BME280;35253;34.688;33.040;2023-03-04T11:22:48;101247.94;;;20.36;100.00
49377;BME280;35253;34.688;33.040;2023-03-04T11:25:22;101241.06;;;20.32;100.00
49377;BME280;35253;34.688;33.040;2023-03-04T11:27:51;101238.56;;;20.78;100.00
49377;BME280;35253;34.688;33.040;2023-03-04T11:36:14;101225.69;;;21.09;100.00
49377;BME280;35253;34.688;33.040;2023-03-04T11:38:38;101231.72;;;21.59;100.00
49377;BME280;35253;34.688;33.040;2023-03-04T11:41:13;101241.13;;;21.08;100.00
49377;BME280;35253;34.688;33.040;2023-03-04T11:43:44;101233.69;;;20.72;100.00
49377;BME280;35253;34.688;33.040;2023-03-04T11:51:24;101244.28;;;20.75;100.00
49377;BME280;35253;34.688;33.040;2023-03-04T11:56:52;101240.13;;;20.52;100.00
49377;BME280;35253;34.688;33.040;2023-03-04T12:02:12;101239.41;;;20.69;100.00
49377;BME280;35253;34.688;33.040;2023-03-04T12:15:03;101244.81;;;20.59;100.00
49377;BME280;35253;34.688;33.040;2023-03-04T12:28:29;101237.19;;;20.24;100.00
49377;BME280;35253;34.688;33.040;2023-03-04T12:31:05;101243.56;;;20.04;100.00
49377;BME280;35253;34.688;33.040;2023-03-04T12:43:46;101246.41;;;20.12;100.00
49377;BME280;35253;34.688;33.040;2023-03-04T12:49:41;101228.25;;;20.34;100.00
49377;BME280;35253;34.688;33.040;2023-03-04T12:52:03;101234.56;;;20.82;100.00
49377;BME280;35253;34.688;33.040;2023-03-04T12:57:17;101225.72;;;20.51;100.00
49377;BME280;35253;34.688;33.040;2023-03-04T12:59:54;101221.41;;;20.30;100.00
49377;BME280;35253;34.688;33.040;2023-03-04T13:09:50;101217.50;;;20.13;100.00
49377;BME280;35253;34.688;33.040;2023-03-04T13:12:20;101224.19;;;20.18;100.00
49377;BME280;35253;34.688;33.040;2023-03-04T13:15:13;101210.91;;;19.96;100.00
49377;BME280;35253;34.688;33.040;2023-03-04T13:17:42;101206.41;;;20.25;100.00
49377;BME280;35253;34.688;33.040;2023-03-04T13:20:21;101215.50;;;20.15;100.00
49377;BME280;35253;34.688;33.040;2023-03-04T13:41:28;101208.44;;;19.93;100.00
49377;BME280;35253;34.688;33.040;2023-03-04T13:43:56;101199.03;;;19.78;100.00
49377;BME280;35253;34.688;33.040;2023-03-04T13:56:26;101210.59;;;20.39;100.00
49377;BME280;35253;34.688;33.040;2023-03-04T14:04:18;101207.94;;;20.09;100.00
49377;BME280;35253;34.688;33.040;2023-03-04T14:06:45;101203.91;;;19.94;100.00
49377;BME280;35253;34.688;33.040;2023-03-04T14:09:14;101199.56;;;19.72;100.00
49377;BME280;35253;34.688;33.040;2023-03-04T14:11:40;101202.38;;;19.61;100.00
49377;BME280;35253;34.688;33.040;2023-03-04T14:14:09;101199.84;;;19.69;100.00
49377;BME280;35253;34.688;33.040;2023-03-04T14:16:39;101209.44;;;19.92;100.00
49377;BME280;35253;34.688;33.040;2023-03-04T14:19:14;101208.84;;;19.49;100.00
49377;BME280;35253;34.688;33.040;2023-03-04T14:21:43;101202.50;;;19.39;100.00
49377;BME280;35253;34.688;33.040;2023-03-04T14:24:13;101208.53;;;19.01;100.00